createdAt,value
2019-05-26T00:01:31.480Z,13.70
2019-05-26T00:04:19.097Z,13.70
2019-05-26T00:07:06.413Z,13.60
2019-05-26T00:09:53.348Z,13.60
2019-05-26T00:12:40.595Z,13.60
2019-05-26T00:15:27.599Z,13.60
2019-05-26T00:18:14.780Z,13.70
2019-05-26T00:21:02.039Z,13.60
2019-05-26T00:23:49.327Z,13.70
2019-05-26T00:26:36.380Z,13.70
2019-05-26T00:29:23.572Z,13.60
2019-05-26T00:32:10.663Z,13.50
2019-05-26T00:34:57.824Z,13.50
2019-05-26T00:37:49.901Z,13.40
2019-05-26T00:40:33.292Z,13.40
2019-05-26T00:43:20.213Z,13.40
2019-05-26T00:46:07.467Z,13.40
2019-05-26T00:48:54.785Z,13.40
2019-05-26T00:51:42.183Z,13.40
2019-05-26T00:54:29.642Z,13.40
2019-05-26T00:57:17.146Z,13.40
2019-05-26T01:00:08.547Z,13.40
2019-05-26T01:02:56.439Z,13.30
2019-05-26T01:05:43.364Z,13.30
2019-05-26T01:08:30.829Z,13.20
2019-05-26T01:11:18.006Z,13.30
2019-05-26T01:14:05.764Z,13.30
2019-05-26T01:16:55.769Z,13.20
2019-05-26T01:19:41.634Z,13.10
2019-05-26T01:22:29.169Z,13.10
2019-05-26T01:25:16.725Z,13.00
2019-05-26T01:28:03.544Z,12.90
2019-05-26T01:30:50.748Z,12.90
2019-05-26T01:33:38.270Z,12.90
2019-05-26T01:36:25.916Z,12.90
2019-05-26T01:39:13.409Z,12.90
2019-05-26T01:42:01.047Z,12.90
2019-05-26T01:44:48.320Z,12.90
2019-05-26T01:47:35.639Z,12.90
2019-05-26T01:50:22.869Z,12.80
2019-05-26T01:53:10.660Z,12.80
2019-05-26T01:55:57.655Z,12.70
2019-05-26T01:58:45.257Z,12.80
2019-05-26T02:01:32.431Z,12.70
2019-05-26T02:04:19.607Z,12.80
2019-05-26T02:07:07.236Z,12.70
2019-05-26T02:09:54.274Z,12.70
2019-05-26T02:12:41.604Z,12.60
2019-05-26T02:15:29.412Z,12.70
2019-05-26T02:18:16.953Z,12.50
2019-05-26T02:21:04.595Z,12.40
2019-05-26T02:23:51.993Z,12.40
2019-05-26T02:26:39.391Z,12.40
2019-05-26T02:29:26.672Z,12.30
2019-05-26T02:32:14.040Z,12.30
2019-05-26T02:35:01.233Z,12.20
2019-05-26T02:37:48.835Z,12.30
2019-05-26T02:40:36.410Z,12.20
2019-05-26T02:43:23.961Z,12.00
2019-05-26T02:46:11.068Z,11.90
2019-05-26T02:48:58.667Z,11.90
2019-05-26T02:51:46.078Z,11.90
2019-05-26T02:54:33.563Z,11.90
2019-05-26T02:57:20.708Z,11.80
2019-05-26T03:00:10.058Z,11.70
2019-05-26T03:02:58.121Z,11.70
2019-05-26T03:05:46.331Z,11.50
2019-05-26T03:08:35.228Z,11.40
2019-05-26T03:11:25.908Z,11.30
2019-05-26T03:14:14.281Z,11.20
2019-05-26T03:17:02.368Z,11.10
2019-05-26T03:19:51.353Z,10.90
2019-05-26T03:22:43.359Z,11.00
2019-05-26T03:25:32.706Z,11.00
2019-05-26T03:28:23.129Z,11.00
2019-05-26T03:31:10.806Z,11.20
2019-05-26T03:33:58.301Z,11.40
2019-05-26T03:36:45.821Z,11.50
2019-05-26T03:39:44.642Z,11.50
2019-05-26T03:42:22.061Z,11.50
2019-05-26T03:45:11.651Z,11.60
2019-05-26T03:47:59.199Z,11.50
2019-05-26T03:50:46.475Z,11.50
2019-05-26T03:53:34.154Z,11.50
2019-05-26T03:56:21.785Z,11.50
2019-05-26T03:59:09.266Z,11.60
2019-05-26T04:01:57.899Z,11.70
2019-05-26T04:04:45.505Z,11.70
2019-05-26T04:07:32.668Z,11.70
2019-05-26T04:10:20.139Z,11.60
2019-05-26T04:13:08.624Z,11.40
2019-05-26T04:15:55.888Z,11.40
2019-05-26T04:18:43.580Z,11.40
2019-05-26T04:21:31.087Z,11.40
2019-05-26T04:24:18.584Z,11.40
2019-05-26T04:27:05.848Z,11.60
2019-05-26T04:29:53.450Z,11.70
2019-05-26T04:32:40.634Z,11.80
2019-05-26T04:35:27.931Z,11.90
2019-05-26T04:38:15.436Z,12.00
2019-05-26T04:41:02.744Z,12.10
2019-05-26T04:43:49.645Z,12.00
2019-05-26T04:46:36.792Z,12.10
2019-05-26T04:49:23.685Z,12.20
2019-05-26T04:52:11.087Z,12.30
2019-05-26T04:54:58.063Z,12.50
2019-05-26T04:57:45.219Z,12.60
2019-05-26T05:00:32.280Z,12.70
2019-05-26T05:03:19.275Z,12.90
2019-05-26T05:06:06.652Z,13.00
2019-05-26T05:08:54.208Z,13.20
2019-05-26T05:11:41.512Z,13.30
2019-05-26T05:14:28.935Z,13.50
2019-05-26T05:17:16.198Z,13.60
2019-05-26T05:20:04.436Z,13.70
2019-05-26T05:22:51.738Z,13.90
2019-05-26T05:25:39.203Z,14.00
2019-05-26T05:28:26.513Z,14.10
2019-05-26T05:31:13.555Z,14.20
2019-05-26T05:34:01.303Z,14.40
2019-05-26T05:36:48.461Z,14.40
2019-05-26T05:39:36.655Z,14.50
2019-05-26T05:42:23.921Z,14.60
2019-05-26T05:45:11.472Z,14.80
2019-05-26T05:47:58.710Z,14.90
2019-05-26T05:50:45.649Z,15.10
2019-05-26T05:53:32.811Z,15.20
2019-05-26T05:56:19.965Z,15.20
2019-05-26T05:59:06.992Z,15.40
2019-05-26T06:01:54.063Z,15.40
2019-05-26T06:04:40.184Z,15.30
2019-05-26T06:07:27.436Z,15.50
2019-05-26T06:10:15.065Z,15.60
2019-05-26T06:13:02.511Z,15.70
2019-05-26T06:15:50.144Z,15.80
2019-05-26T06:18:37.197Z,15.80
2019-05-26T06:21:25.119Z,15.80
2019-05-26T06:24:12.162Z,15.80
2019-05-26T06:26:59.102Z,15.90
2019-05-26T06:29:58.300Z,15.90
2019-05-26T06:32:35.503Z,16.00
2019-05-26T06:35:22.595Z,16.10
2019-05-26T06:38:09.910Z,16.30
2019-05-26T06:40:56.880Z,16.50
2019-05-26T06:43:44.343Z,16.70
2019-05-26T06:46:31.406Z,16.90
2019-05-26T06:49:18.646Z,17.10
2019-05-26T06:52:06.206Z,17.30
2019-05-26T06:54:53.469Z,17.50
2019-05-26T06:57:40.948Z,17.60
2019-05-26T07:00:28.213Z,17.70
2019-05-26T07:03:15.772Z,17.70
2019-05-26T07:06:03.152Z,17.90
2019-05-26T07:08:50.445Z,17.90
2019-05-26T07:11:53.894Z,18.00
2019-05-26T07:14:26.413Z,17.90
2019-05-26T07:17:13.737Z,17.90
2019-05-26T07:20:01.065Z,17.90
2019-05-26T07:22:48.353Z,18.00
2019-05-26T07:25:35.612Z,17.90
2019-05-26T07:28:22.862Z,18.00
2019-05-26T07:31:08.926Z,18.10
2019-05-26T07:33:56.039Z,18.20
2019-05-26T07:36:43.517Z,18.40
2019-05-26T07:39:30.755Z,18.50
2019-05-26T07:42:17.867Z,18.60
2019-05-26T07:45:07.003Z,18.70
2019-05-26T07:47:53.898Z,18.70
2019-05-26T07:50:41.248Z,18.70
2019-05-26T07:53:28.432Z,18.80
2019-05-26T07:56:15.603Z,18.90
2019-05-26T07:59:02.760Z,19.00
2019-05-26T08:01:49.751Z,19.10
2019-05-26T08:04:37.386Z,19.20
2019-05-26T08:07:24.798Z,19.50
2019-05-26T08:10:12.174Z,19.50
2019-05-26T08:12:59.178Z,19.70
2019-05-26T08:15:46.450Z,20.10
2019-05-26T08:18:34.207Z,20.40
2019-05-26T08:21:21.247Z,20.40
2019-05-26T08:24:08.699Z,20.50
2019-05-26T08:26:56.176Z,20.50
2019-05-26T08:29:43.326Z,20.80
2019-05-26T08:32:30.349Z,20.90
2019-05-26T08:35:17.787Z,20.70
2019-05-26T08:38:05.175Z,20.70
2019-05-26T08:40:52.404Z,20.80
2019-05-26T08:43:40.185Z,21.00
2019-05-26T08:46:27.595Z,20.90
2019-05-26T08:49:14.527Z,20.80
2019-05-26T08:52:01.505Z,20.70
2019-05-26T08:54:48.640Z,20.70
2019-05-26T08:57:35.979Z,21.00
2019-05-26T09:00:23.646Z,20.90
2019-05-26T09:03:10.728Z,21.00
2019-05-26T09:05:58.150Z,21.10
2019-05-26T09:08:44.898Z,21.20
2019-05-26T09:11:32.371Z,21.20
2019-05-26T09:14:19.800Z,21.40
2019-05-26T09:17:06.752Z,21.60
2019-05-26T09:19:53.775Z,21.50
2019-05-26T09:22:40.744Z,21.50
2019-05-26T09:25:28.322Z,21.50
2019-05-26T09:28:15.701Z,21.30
2019-05-26T09:31:02.750Z,21.40
2019-05-26T09:33:50.282Z,21.80
2019-05-26T09:36:37.295Z,22.00
2019-05-26T09:39:24.292Z,21.80
2019-05-26T09:42:12.085Z,21.60
2019-05-26T09:44:59.278Z,21.80
2019-05-26T09:47:46.696Z,21.50
2019-05-26T09:50:34.245Z,21.40
2019-05-26T09:53:21.763Z,21.80
2019-05-26T09:56:09.372Z,22.10
2019-05-26T09:58:56.714Z,22.20
2019-05-26T10:01:44.001Z,22.40
2019-05-26T10:04:35.061Z,22.50
2019-05-26T10:07:22.006Z,22.40
2019-05-26T10:10:09.604Z,22.40
2019-05-26T10:12:56.501Z,22.70
2019-05-26T10:15:43.834Z,23.10
2019-05-26T10:18:30.786Z,23.00
2019-05-26T10:21:21.019Z,22.80
2019-05-26T10:24:08.662Z,22.80
2019-05-26T10:26:55.998Z,22.50
2019-05-26T10:29:42.913Z,22.70
2019-05-26T10:32:30.110Z,22.90
2019-05-26T10:35:17.690Z,23.20
2019-05-26T10:38:04.770Z,23.60
2019-05-26T10:40:52.066Z,23.70
2019-05-26T10:43:46.997Z,24.00
2019-05-26T10:46:27.430Z,23.80
2019-05-26T10:49:13.341Z,24.20
2019-05-26T10:52:00.326Z,23.90
2019-05-26T10:54:47.768Z,23.70
2019-05-26T10:57:35.153Z,23.70
2019-05-26T11:00:22.561Z,23.90
2019-05-26T11:03:09.660Z,24.40
2019-05-26T11:05:56.910Z,24.30
2019-05-26T11:08:44.070Z,24.20
2019-05-26T11:11:32.363Z,23.90
2019-05-26T11:14:20.429Z,23.60
2019-05-26T11:17:07.606Z,24.00
2019-05-26T11:19:54.994Z,24.20
2019-05-26T11:22:47.672Z,24.50
2019-05-26T11:25:34.683Z,24.70
2019-05-26T11:28:21.958Z,24.70
2019-05-26T11:31:09.046Z,24.70
2019-05-26T11:33:56.179Z,24.50
2019-05-26T11:36:43.548Z,24.50
2019-05-26T11:39:30.775Z,24.30
2019-05-26T11:42:17.772Z,24.60
2019-05-26T11:45:09.308Z,25.00
2019-05-26T11:47:56.500Z,25.00
2019-05-26T11:50:43.565Z,24.80
2019-05-26T11:53:30.899Z,24.60
2019-05-26T11:56:18.239Z,24.80
2019-05-26T11:59:05.286Z,25.10
2019-05-26T12:01:52.554Z,25.30
2019-05-26T12:04:39.578Z,25.80
2019-05-26T12:07:26.532Z,26.10
2019-05-26T12:10:14.427Z,25.80
2019-05-26T12:13:01.878Z,26.00
2019-05-26T12:15:48.955Z,25.70
2019-05-26T12:18:36.152Z,25.60
2019-05-26T12:21:23.184Z,25.30
2019-05-26T12:24:09.878Z,25.40
2019-05-26T12:26:56.788Z,25.60
2019-05-26T12:29:43.911Z,25.80
2019-05-26T12:32:30.818Z,26.00
2019-05-26T12:35:18.544Z,26.10
2019-05-26T12:38:05.741Z,26.30
2019-05-26T12:40:52.386Z,25.90
2019-05-26T12:43:39.744Z,25.60
2019-05-26T12:46:27.013Z,25.80
2019-05-26T12:49:14.236Z,25.80
2019-05-26T12:52:01.574Z,25.90
2019-05-26T12:54:48.488Z,26.00
2019-05-26T12:57:35.280Z,26.30
2019-05-26T13:00:49.064Z,26.20
2019-05-26T13:03:32.028Z,26.10
2019-05-26T13:06:19.427Z,26.00
2019-05-26T13:09:11.280Z,25.80
2019-05-26T13:11:58.317Z,25.70
2019-05-26T13:14:45.290Z,25.90
2019-05-26T13:17:32.602Z,25.70
2019-05-26T13:20:20.143Z,25.80
2019-05-26T13:23:07.273Z,25.50
2019-05-26T13:25:54.250Z,25.50
2019-05-26T13:28:41.432Z,25.80
2019-05-26T13:31:28.629Z,25.90
2019-05-26T13:34:15.440Z,26.00
2019-05-26T13:37:02.474Z,26.30
2019-05-26T13:39:49.823Z,26.40
2019-05-26T13:42:37.346Z,26.00
2019-05-26T13:45:24.591Z,25.90
2019-05-26T13:48:11.692Z,26.10
2019-05-26T13:50:58.628Z,26.30
2019-05-26T13:53:45.875Z,26.60
2019-05-26T13:56:32.866Z,26.50
2019-05-26T13:59:19.571Z,26.50
2019-05-26T14:02:06.672Z,26.60
2019-05-26T14:04:53.935Z,26.50
2019-05-26T14:07:41.333Z,26.50
2019-05-26T14:10:34.294Z,26.70
2019-05-26T14:13:21.471Z,26.90
2019-05-26T14:16:08.870Z,26.40
2019-05-26T14:18:57.295Z,26.10
2019-05-26T14:21:44.524Z,26.40
2019-05-26T14:24:31.751Z,26.40
2019-05-26T14:27:18.999Z,26.20
2019-05-26T14:30:06.814Z,26.10
2019-05-26T14:32:53.990Z,26.50
2019-05-26T14:35:41.375Z,26.40
2019-05-26T14:38:42.223Z,26.10
2019-05-26T14:41:17.404Z,25.60
2019-05-26T14:44:04.940Z,25.50
2019-05-26T14:46:52.216Z,25.60
2019-05-26T14:49:39.351Z,26.20
2019-05-26T14:52:26.068Z,26.60
2019-05-26T14:55:13.518Z,27.00
2019-05-26T14:58:14.246Z,26.90
2019-05-26T15:00:49.614Z,27.00
2019-05-26T15:03:36.939Z,27.00
2019-05-26T15:06:23.943Z,27.40
2019-05-26T15:09:24.237Z,27.30
2019-05-26T15:12:00.250Z,27.10
2019-05-26T15:14:47.485Z,27.10
2019-05-26T15:17:34.637Z,26.90
2019-05-26T15:20:21.641Z,26.80
2019-05-26T15:23:08.605Z,26.80
2019-05-26T15:25:56.291Z,26.70
2019-05-26T15:28:43.705Z,27.10
2019-05-26T15:31:30.738Z,27.00
2019-05-26T15:34:17.903Z,26.70
2019-05-26T15:37:05.140Z,27.00
2019-05-26T15:39:52.502Z,27.60
2019-05-26T15:42:39.138Z,27.90
2019-05-26T15:45:26.483Z,27.30
2019-05-26T15:48:13.613Z,27.20
2019-05-26T15:51:00.641Z,27.10
2019-05-26T15:53:48.183Z,26.90
2019-05-26T15:56:35.493Z,26.80
2019-05-26T15:59:22.843Z,26.60
2019-05-26T16:02:09.923Z,26.60
2019-05-26T16:04:59.018Z,26.90
2019-05-26T16:07:46.078Z,27.10
2019-05-26T16:10:33.165Z,27.10
2019-05-26T16:13:20.169Z,26.90
2019-05-26T16:16:08.385Z,26.60
2019-05-26T16:18:56.331Z,26.10
2019-05-26T16:21:43.007Z,26.00
2019-05-26T16:24:30.370Z,25.90
2019-05-26T16:27:19.507Z,25.80
2019-05-26T16:30:07.544Z,25.50
2019-05-26T16:32:54.565Z,25.40
2019-05-26T16:35:41.673Z,25.30
2019-05-26T16:38:28.930Z,25.40
2019-05-26T16:41:16.176Z,25.30
2019-05-26T16:44:03.325Z,25.50
2019-05-26T16:46:56.465Z,25.40
2019-05-26T16:49:39.606Z,25.50
2019-05-26T16:52:26.773Z,25.30
2019-05-26T16:55:14.037Z,25.00
2019-05-26T16:58:01.313Z,24.80
2019-05-26T17:00:48.495Z,24.80
2019-05-26T17:03:35.791Z,24.90
2019-05-26T17:06:22.817Z,25.00
2019-05-26T17:09:10.002Z,25.00
2019-05-26T17:11:57.455Z,24.80
2019-05-26T17:14:44.776Z,24.50
2019-05-26T17:17:31.741Z,24.30
2019-05-26T17:20:19.034Z,24.30
2019-05-26T17:23:06.362Z,24.00
2019-05-26T17:25:53.559Z,24.00
2019-05-26T17:28:41.527Z,23.90
2019-05-26T17:31:28.636Z,24.00
2019-05-26T17:34:15.684Z,23.90
2019-05-26T17:37:02.887Z,23.80
2019-05-26T17:39:49.806Z,23.90
2019-05-26T17:42:37.432Z,23.80
2019-05-26T17:45:24.607Z,23.80
2019-05-26T17:48:11.763Z,23.70
2019-05-26T17:50:59.156Z,23.70
2019-05-26T17:53:46.535Z,23.70
2019-05-26T17:56:33.586Z,23.70
2019-05-26T17:59:21.044Z,23.80
2019-05-26T18:02:08.614Z,23.80
2019-05-26T18:04:56.018Z,24.00
2019-05-26T18:07:43.397Z,24.10
2019-05-26T18:10:30.746Z,24.30
2019-05-26T18:13:18.882Z,24.50
2019-05-26T18:16:06.253Z,24.30
2019-05-26T18:18:53.840Z,24.10
2019-05-26T18:21:41.106Z,24.10
2019-05-26T18:24:28.409Z,23.90
2019-05-26T18:27:15.693Z,23.80
2019-05-26T18:30:03.321Z,23.70
2019-05-26T18:32:50.508Z,23.60
2019-05-26T18:35:37.661Z,23.50
2019-05-26T18:38:24.918Z,23.50
2019-05-26T18:41:12.822Z,23.50
2019-05-26T18:43:59.954Z,23.30
2019-05-26T18:46:46.934Z,23.30
2019-05-26T18:49:34.473Z,23.10
2019-05-26T18:52:21.935Z,23.00
2019-05-26T18:55:09.480Z,22.80
2019-05-26T18:57:56.596Z,22.80
2019-05-26T19:00:43.801Z,22.70
2019-05-26T19:03:31.286Z,22.70
2019-05-26T19:06:18.950Z,22.60
2019-05-26T19:09:08.599Z,22.60
2019-05-26T19:11:56.267Z,22.60
2019-05-26T19:14:43.396Z,22.40
2019-05-26T19:17:42.560Z,22.50
2019-05-26T19:20:29.922Z,22.40
2019-05-26T19:23:17.331Z,22.40
2019-05-26T19:26:04.635Z,22.30
2019-05-26T19:28:51.845Z,22.30
2019-05-26T19:31:38.985Z,22.30
2019-05-26T19:34:26.291Z,22.40
2019-05-26T19:37:13.232Z,22.40
2019-05-26T19:40:00.523Z,22.40
2019-05-26T19:42:47.782Z,22.30
2019-05-26T19:45:34.936Z,22.40
2019-05-26T19:48:35.020Z,22.20
2019-05-26T19:51:10.734Z,22.20
2019-05-26T19:53:57.684Z,22.20
2019-05-26T19:56:45.061Z,22.20
2019-05-26T19:59:32.301Z,22.20
2019-05-26T20:02:19.507Z,22.20
2019-05-26T20:05:08.228Z,22.20
2019-05-26T20:07:55.279Z,22.10
2019-05-26T20:10:41.132Z,22.10
2019-05-26T20:13:28.035Z,22.00
2019-05-26T20:16:15.310Z,21.90
2019-05-26T20:19:02.526Z,21.80
2019-05-26T20:21:49.489Z,21.70
2019-05-26T20:24:36.674Z,21.60
2019-05-26T20:27:23.915Z,21.50
2019-05-26T20:30:11.437Z,21.40
2019-05-26T20:32:58.659Z,21.10
2019-05-26T20:35:45.639Z,20.90
2019-05-26T20:38:32.621Z,20.60
2019-05-26T20:41:19.587Z,20.60
2019-05-26T20:44:07.844Z,20.50
2019-05-26T20:46:55.180Z,20.50
2019-05-26T20:49:45.769Z,20.40
2019-05-26T20:52:31.668Z,20.30
2019-05-26T20:55:19.539Z,20.20
2019-05-26T20:58:06.434Z,20.00
2019-05-26T21:00:53.879Z,19.90
2019-05-26T21:03:41.454Z,19.80
2019-05-26T21:06:28.694Z,19.60
2019-05-26T21:09:15.832Z,19.60
2019-05-26T21:12:03.602Z,19.50
2019-05-26T21:14:51.007Z,19.40
2019-05-26T21:17:38.514Z,19.30
2019-05-26T21:20:25.656Z,19.20
2019-05-26T21:23:13.109Z,19.10
2019-05-26T21:26:00.490Z,19.00
2019-05-26T21:28:47.725Z,18.90
2019-05-26T21:31:34.884Z,18.80
2019-05-26T21:34:22.200Z,18.70
2019-05-26T21:37:10.663Z,18.60
2019-05-26T21:39:57.651Z,18.40
2019-05-26T21:42:45.072Z,18.30
2019-05-26T21:45:32.706Z,18.30
2019-05-26T21:48:20.074Z,18.20
2019-05-26T21:51:07.464Z,18.00
2019-05-26T21:53:54.678Z,17.90
2019-05-26T21:56:41.918Z,17.90
2019-05-26T21:59:29.234Z,17.70
2019-05-26T22:02:16.976Z,17.70
2019-05-26T22:05:06.217Z,17.60
2019-05-26T22:07:53.177Z,17.60
2019-05-26T22:10:40.157Z,17.60
2019-05-26T22:13:27.563Z,17.60
2019-05-26T22:16:14.820Z,17.50
2019-05-26T22:19:02.048Z,17.40
2019-05-26T22:21:49.390Z,17.40
2019-05-26T22:24:36.548Z,17.30
2019-05-26T22:27:23.684Z,17.30
2019-05-26T22:30:11.843Z,17.30
2019-05-26T22:32:59.424Z,17.20
2019-05-26T22:35:46.376Z,17.20
2019-05-26T22:38:33.570Z,17.10
2019-05-26T22:41:20.577Z,17.00
2019-05-26T22:44:07.684Z,17.10
2019-05-26T22:46:54.843Z,17.20
2019-05-26T22:49:42.013Z,17.30
2019-05-26T22:52:29.482Z,17.40
2019-05-26T22:55:17.096Z,17.50
2019-05-26T22:58:04.330Z,17.50
2019-05-26T23:00:51.555Z,17.50
2019-05-26T23:03:38.529Z,17.60
2019-05-26T23:06:25.686Z,17.60
2019-05-26T23:09:12.383Z,17.60
2019-05-26T23:11:59.486Z,17.60
2019-05-26T23:14:46.972Z,17.70
2019-05-26T23:17:34.180Z,17.80
2019-05-26T23:20:21.495Z,17.80
2019-05-26T23:23:08.636Z,17.90
2019-05-26T23:25:55.279Z,17.90
2019-05-26T23:28:42.365Z,18.00
2019-05-26T23:31:29.318Z,18.00
2019-05-26T23:34:16.382Z,18.00
2019-05-26T23:37:04.561Z,18.10
2019-05-26T23:39:51.730Z,18.00
2019-05-26T23:42:37.931Z,18.00
2019-05-26T23:45:24.812Z,17.90
2019-05-26T23:48:12.217Z,17.90
2019-05-26T23:50:59.807Z,17.90
2019-05-26T23:53:46.893Z,18.00
2019-05-26T23:56:34.718Z,18.00
2019-05-26T23:59:21.796Z,18.00
